SCFA

Andres Sabella Galvez International Airport

Airport
ICAO code
SCFA
IATA Code
ANF
Summary
ICAO Region
CARSAM
ICAO Territory
Location

La Chimba, Antofagasta

Serving
Antofagasta
Elevation
455 ft
Coordinates
23° 26' 40" S , 70° 26' 42" W
KCC
BWh
Metar
Observation
SCFA 131400Z 19006KT 9999 BKN025 13/07 Q1020 NOSIG
Station
Antofagasta
Date/Time
2022-08-13 14:00:00
Wind direction
190°
Wind speed
06 kts
Lowest cloud amount
broken clouds
Temperature
13°C
Dew point
7°C
Humidity
66%
QNH
1020 hPa
Weather condition
n/a

International airport 6.2 nm north of Antofagasta, Chile.

Climatology

Mild desert climate (Köppen climate classification BWh)

Runways

Designator Length Width Surface Rops
1/19 2599 50 ASP No/No

Airport map

Aerial View

SKYbrary Partners:

Safety knowledge contributed by: